createdAt,value
2018-12-19T00:02:35.225Z,5.71
2018-12-19T00:05:12.236Z,5.71
2018-12-19T00:07:50.175Z,5.72
2018-12-19T00:10:27.226Z,5.74
2018-12-19T00:13:05.509Z,5.74
2018-12-19T00:15:42.157Z,5.74
2018-12-19T00:18:21.541Z,5.74
2018-12-19T00:20:58.197Z,5.75
2018-12-19T00:23:35.297Z,5.75
2018-12-19T00:26:15.233Z,5.75
2018-12-19T00:28:52.674Z,5.75
2018-12-19T00:31:29.734Z,5.78
2018-12-19T00:34:07.654Z,5.78
2018-12-19T00:36:46.939Z,5.80
2018-12-19T00:39:23.394Z,5.80
2018-12-19T00:42:01.778Z,5.81
2018-12-19T00:44:41.975Z,5.82
2018-12-19T00:47:19.193Z,5.82
2018-12-19T00:49:58.393Z,5.83
2018-12-19T00:52:38.285Z,5.84
2018-12-19T00:55:16.303Z,5.84
2018-12-19T00:57:55.001Z,5.84
2018-12-19T01:00:30.541Z,5.74
2018-12-19T01:03:07.837Z,5.84
2018-12-19T01:05:45.054Z,5.84
2018-12-19T01:08:44.749Z,5.85
2018-12-19T01:11:20.956Z,5.86
2018-12-19T01:13:58.807Z,5.87
2018-12-19T01:16:35.966Z,5.88
2018-12-19T01:19:14.195Z,5.88
2018-12-19T01:21:51.257Z,5.90
2018-12-19T01:24:28.433Z,5.89
2018-12-19T01:29:57.232Z,5.92
2018-12-19T01:32:34.469Z,5.94
2018-12-19T01:35:11.170Z,5.94
2018-12-19T01:37:50.162Z,5.96
2018-12-19T01:40:29.170Z,5.97
2018-12-19T01:45:56.537Z,5.99
2018-12-19T01:48:34.474Z,5.98
2018-12-19T01:51:14.528Z,5.98
2018-12-19T01:53:49.391Z,5.98
2018-12-19T01:56:27.623Z,6.00
2018-12-19T01:59:06.957Z,6.02
2018-12-19T02:01:44.613Z,6.00
2018-12-19T02:04:22.945Z,6.00
2018-12-19T02:07:01.818Z,5.99
2018-12-19T02:09:40.050Z,6.00
2018-12-19T02:12:20.046Z,5.99
2018-12-19T02:15:00.358Z,6.00
2018-12-19T02:17:38.739Z,5.99
2018-12-19T02:20:17.984Z,6.00
2018-12-19T02:22:56.109Z,6.01
2018-12-19T02:25:38.010Z,6.00
2018-12-19T02:28:17.141Z,6.00
2018-12-19T02:30:55.060Z,6.00
2018-12-19T02:33:34.143Z,5.99
2018-12-19T02:36:12.374Z,5.99
2018-12-19T02:38:49.976Z,5.99
2018-12-19T02:41:28.117Z,6.00
2018-12-19T02:44:06.272Z,6.00
2018-12-19T02:46:44.426Z,6.00
2018-12-19T02:49:22.622Z,6.00
2018-12-19T02:52:02.746Z,6.02
2018-12-19T02:54:40.891Z,6.03
2018-12-19T02:57:20.295Z,6.02
2018-12-19T02:59:58.079Z,6.02
2018-12-19T03:02:37.607Z,6.03
2018-12-19T03:05:14.020Z,6.05
2018-12-19T03:07:50.853Z,6.09
2018-12-19T03:10:30.031Z,6.10
2018-12-19T03:13:07.649Z,6.11
2018-12-19T03:15:44.969Z,6.12
2018-12-19T03:18:26.832Z,6.14
2018-12-19T03:21:06.002Z,6.15
2018-12-19T03:23:46.061Z,6.15
2018-12-19T03:26:24.603Z,6.15
2018-12-19T03:29:02.506Z,6.15
2018-12-19T03:31:44.013Z,6.15
2018-12-19T03:34:21.706Z,6.15
2018-12-19T03:37:19.802Z,6.16
2018-12-19T03:39:58.968Z,6.14
2018-12-19T03:42:38.417Z,6.14
2018-12-19T03:45:16.730Z,6.15
2018-12-19T03:47:56.393Z,6.16
2018-12-19T03:50:35.457Z,6.15
2018-12-19T03:53:16.865Z,6.15
2018-12-19T03:55:55.407Z,6.15
2018-12-19T03:58:34.639Z,6.13
2018-12-19T04:01:13.559Z,6.15
2018-12-19T04:03:52.646Z,6.14
2018-12-19T04:06:30.866Z,6.16
2018-12-19T04:09:09.452Z,6.15
2018-12-19T04:11:45.945Z,6.17
2018-12-19T04:14:24.493Z,6.18
2018-12-19T04:17:01.112Z,6.18
2018-12-19T04:19:38.391Z,6.20
2018-12-19T04:22:18.342Z,6.20
2018-12-19T04:24:57.557Z,6.21
2018-12-19T04:27:40.391Z,6.20
2018-12-19T04:30:20.522Z,6.21
2018-12-19T04:32:56.943Z,6.22
2018-12-19T04:35:34.520Z,6.22
2018-12-19T04:38:13.224Z,6.23
2018-12-19T04:40:50.950Z,6.25
2018-12-19T04:43:28.054Z,6.26
2018-12-19T04:46:04.128Z,6.26
2018-12-19T04:48:39.822Z,6.27
2018-12-19T04:51:15.711Z,6.28
2018-12-19T04:53:51.864Z,6.26
2018-12-19T04:56:30.083Z,6.26
2018-12-19T04:59:09.777Z,6.26
2018-12-19T05:01:46.981Z,6.26
2018-12-19T05:04:22.980Z,6.25
2018-12-19T05:06:57.886Z,6.25
2018-12-19T05:09:36.167Z,6.25
2018-12-19T05:12:16.186Z,6.24
2018-12-19T05:14:53.013Z,6.23
2018-12-19T05:17:29.227Z,6.23
2018-12-19T05:20:05.017Z,6.21
2018-12-19T05:22:42.832Z,6.20
2018-12-19T05:25:23.211Z,6.19
2018-12-19T05:27:59.904Z,6.20
2018-12-19T05:30:35.462Z,6.23
2018-12-19T05:33:11.147Z,6.25
2018-12-19T05:35:47.052Z,6.26
2018-12-19T05:38:23.573Z,6.28
2018-12-19T05:40:59.419Z,6.30
2018-12-19T05:43:37.413Z,6.34
2018-12-19T05:46:13.847Z,6.36
2018-12-19T05:48:48.982Z,6.38
2018-12-19T05:51:28.385Z,6.40
2018-12-19T05:54:04.451Z,6.42
2018-12-19T05:56:40.392Z,6.43
2018-12-19T05:59:18.185Z,6.45
2018-12-19T06:01:55.243Z,6.45
2018-12-19T06:04:31.757Z,6.43
2018-12-19T06:07:08.247Z,6.48
2018-12-19T06:09:46.772Z,6.49
2018-12-19T06:12:22.389Z,6.50
2018-12-19T06:14:57.445Z,6.50
2018-12-19T06:17:33.562Z,6.50
2018-12-19T06:22:49.707Z,6.54
2018-12-19T06:25:25.624Z,6.54
2018-12-19T06:28:01.526Z,6.52
2018-12-19T06:30:37.713Z,6.51
2018-12-19T06:33:13.457Z,6.50
2018-12-19T06:35:48.852Z,6.50
2018-12-19T06:38:25.681Z,6.50
2018-12-19T06:41:03.069Z,6.48
2018-12-19T06:43:41.824Z,6.46
2018-12-19T06:46:17.148Z,6.44
2018-12-19T06:48:53.689Z,6.41
2018-12-19T06:51:29.698Z,6.41
2018-12-19T06:54:05.505Z,6.40
2018-12-19T06:56:42.396Z,6.39
2018-12-19T06:59:19.395Z,6.38
2018-12-19T07:01:56.793Z,6.36
2018-12-19T07:04:33.013Z,6.37
2018-12-19T07:07:11.096Z,6.37
2018-12-19T07:09:48.460Z,6.37
2018-12-19T07:12:55.384Z,6.35
2018-12-19T07:15:33.082Z,6.35
2018-12-19T07:18:08.420Z,6.38
2018-12-19T07:20:44.737Z,6.38
2018-12-19T07:23:20.512Z,6.41
2018-12-19T07:25:56.591Z,6.40
2018-12-19T07:28:32.676Z,6.42
2018-12-19T07:31:07.516Z,6.42
2018-12-19T07:33:46.251Z,6.45
2018-12-19T07:36:24.024Z,6.45
2018-12-19T07:39:01.898Z,6.46
2018-12-19T07:41:38.817Z,6.47
2018-12-19T07:44:17.467Z,6.48
2018-12-19T07:46:58.443Z,6.48
2018-12-19T07:49:36.321Z,6.49
2018-12-19T07:52:16.666Z,6.50
2018-12-19T07:54:55.665Z,6.52
2018-12-19T07:57:32.681Z,6.53
2018-12-19T08:00:11.084Z,6.55
2018-12-19T08:02:49.193Z,6.57
2018-12-19T08:05:26.518Z,6.57
2018-12-19T08:08:06.919Z,6.58
2018-12-19T08:10:52.019Z,6.61
2018-12-19T08:13:26.320Z,6.62
2018-12-19T08:16:03.196Z,6.65
2018-12-19T08:18:40.220Z,6.63
2018-12-19T08:21:18.503Z,6.71
2018-12-19T08:23:54.269Z,6.72
2018-12-19T08:26:29.501Z,6.75
2018-12-19T08:29:09.519Z,6.78
2018-12-19T08:31:45.502Z,6.79
2018-12-19T08:34:21.994Z,6.84
2018-12-19T08:36:58.882Z,6.87
2018-12-19T08:39:36.381Z,6.94
2018-12-19T08:42:13.456Z,7.00
2018-12-19T08:47:44.970Z,7.10
2018-12-19T08:50:26.192Z,7.16
2018-12-19T08:53:04.281Z,7.20
2018-12-19T08:55:43.474Z,7.25
2018-12-19T08:58:18.737Z,7.29
2018-12-19T09:00:55.237Z,7.34
2018-12-19T09:03:35.460Z,7.38
2018-12-19T09:06:13.378Z,7.42
2018-12-19T09:08:48.311Z,7.46
2018-12-19T09:11:27.086Z,7.50
2018-12-19T09:14:01.973Z,7.54
2018-12-19T09:16:38.177Z,7.57
2018-12-19T09:19:13.987Z,7.59
2018-12-19T09:24:32.713Z,7.71
2018-12-19T09:27:08.261Z,7.72
2018-12-19T09:29:45.793Z,7.74
2018-12-19T09:32:22.502Z,7.77
2018-12-19T09:34:59.962Z,7.79
2018-12-19T09:37:37.553Z,7.83
2018-12-19T09:40:17.242Z,7.89
2018-12-19T09:42:58.369Z,7.92
2018-12-19T09:45:36.701Z,7.96
2018-12-19T09:48:13.623Z,8.03
2018-12-19T09:50:48.431Z,8.07
2018-12-19T09:53:26.934Z,8.14
2018-12-19T09:56:05.300Z,8.18
2018-12-19T09:58:44.017Z,8.20
2018-12-19T10:01:21.989Z,8.23
2018-12-19T10:04:03.666Z,8.24
2018-12-19T10:06:42.620Z,8.28
2018-12-19T10:09:19.992Z,8.31
2018-12-19T10:11:59.098Z,8.36
2018-12-19T10:14:34.292Z,8.37
2018-12-19T10:17:12.838Z,8.40
2018-12-19T10:19:51.801Z,8.41
2018-12-19T10:22:31.373Z,8.42
2018-12-19T10:25:12.633Z,8.44
2018-12-19T10:27:49.442Z,8.48
2018-12-19T10:30:26.599Z,8.49
2018-12-19T10:33:04.550Z,8.52
2018-12-19T10:35:42.015Z,8.54
2018-12-19T10:38:17.646Z,8.58
2018-12-19T10:40:53.193Z,8.58
2018-12-19T10:43:30.807Z,8.61
2018-12-19T10:46:09.308Z,8.62
2018-12-19T10:48:47.090Z,8.61
2018-12-19T10:51:27.345Z,8.59
2018-12-19T10:54:06.077Z,8.58
2018-12-19T10:56:41.477Z,8.60
2018-12-19T10:59:17.837Z,8.63
2018-12-19T11:01:55.767Z,8.67
2018-12-19T11:04:32.133Z,8.70
2018-12-19T11:07:11.511Z,8.71
2018-12-19T11:09:48.618Z,8.74
2018-12-19T11:12:24.080Z,8.78
2018-12-19T11:14:59.531Z,8.81
2018-12-19T11:17:37.766Z,8.85
2018-12-19T11:20:17.583Z,8.86
2018-12-19T11:22:54.963Z,8.88
2018-12-19T11:25:32.295Z,8.93
2018-12-19T11:28:10.439Z,8.96
2018-12-19T11:30:47.947Z,9.02
2018-12-19T11:33:29.033Z,9.07
2018-12-19T11:36:10.893Z,9.12
2018-12-19T11:38:48.406Z,9.16
2018-12-19T11:41:27.246Z,9.19
2018-12-19T11:44:03.187Z,9.23
2018-12-19T11:46:39.586Z,9.24
2018-12-19T11:49:15.534Z,9.28
2018-12-19T11:51:55.383Z,9.30
2018-12-19T11:54:36.039Z,9.31
2018-12-19T11:57:14.268Z,9.33
2018-12-19T11:59:50.410Z,9.35
2018-12-19T12:02:25.097Z,9.38
2018-12-19T12:05:02.444Z,9.44
2018-12-19T12:07:37.403Z,9.55
2018-12-19T12:10:12.941Z,9.63
2018-12-19T12:12:49.199Z,9.63
2018-12-19T12:15:24.442Z,9.64
2018-12-19T12:18:00.991Z,9.62
2018-12-19T12:20:38.430Z,9.58
2018-12-19T12:23:14.292Z,9.58
2018-12-19T12:25:48.608Z,9.60
2018-12-19T12:28:25.462Z,9.62
2018-12-19T12:33:51.413Z,9.74
2018-12-19T12:36:28.599Z,9.74
2018-12-19T12:39:04.470Z,9.74
2018-12-19T12:41:41.175Z,9.72
2018-12-19T12:44:15.249Z,9.69
2018-12-19T12:46:52.376Z,9.67
2018-12-19T12:49:32.601Z,9.68
2018-12-19T12:52:10.627Z,9.68
2018-12-19T12:54:48.246Z,9.65
2018-12-19T12:57:27.030Z,9.62
2018-12-19T13:00:04.716Z,9.62
2018-12-19T13:02:44.050Z,9.41
2018-12-19T13:05:24.751Z,9.62
2018-12-19T13:08:02.817Z,9.64
2018-12-19T13:10:40.874Z,9.69
2018-12-19T13:13:19.507Z,9.73
2018-12-19T13:15:56.232Z,9.58
2018-12-19T13:18:36.806Z,9.75
2018-12-19T13:21:16.096Z,9.77
2018-12-19T13:23:55.335Z,9.79
2018-12-19T13:26:32.691Z,9.83
2018-12-19T13:29:13.296Z,9.90
2018-12-19T13:31:51.773Z,9.93
2018-12-19T13:34:28.959Z,9.97
2018-12-19T13:37:08.450Z,9.97
2018-12-19T13:39:49.383Z,9.92
2018-12-19T13:42:26.169Z,9.90
2018-12-19T13:45:03.559Z,9.92
2018-12-19T13:47:39.983Z,9.97
2018-12-19T13:50:17.920Z,9.99
2018-12-19T13:52:55.039Z,10.02
2018-12-19T13:55:32.525Z,9.99
2018-12-19T13:58:09.285Z,10.00
2018-12-19T14:00:46.549Z,10.00
2018-12-19T14:03:23.742Z,9.99
2018-12-19T14:06:01.337Z,9.98
2018-12-19T14:08:39.772Z,9.97
2018-12-19T14:11:19.102Z,9.95
2018-12-19T14:13:57.741Z,9.94
2018-12-19T14:16:32.283Z,9.92
2018-12-19T14:19:16.300Z,9.90
2018-12-19T14:21:59.051Z,9.88
2018-12-19T14:27:22.140Z,9.85
2018-12-19T14:29:59.009Z,9.82
2018-12-19T14:32:38.752Z,9.80
2018-12-19T14:35:17.773Z,9.77
2018-12-19T14:37:58.660Z,9.76
2018-12-19T14:40:38.063Z,9.76
2018-12-19T14:46:31.769Z,9.72
2018-12-19T14:49:14.145Z,9.70
2018-12-19T14:51:51.438Z,9.69
2018-12-19T14:54:36.821Z,9.68
2018-12-19T14:57:15.342Z,9.68
2018-12-19T14:59:52.146Z,9.66
2018-12-19T15:02:32.255Z,9.65
2018-12-19T15:05:10.075Z,9.59
2018-12-19T15:07:47.871Z,9.62
2018-12-19T15:10:23.714Z,9.61
2018-12-19T15:13:03.757Z,9.60
2018-12-19T15:15:36.550Z,9.56
2018-12-19T15:18:13.765Z,9.53
2018-12-19T15:20:51.559Z,9.50
2018-12-19T15:23:28.080Z,9.44
2018-12-19T15:26:07.510Z,9.40
2018-12-19T15:28:45.205Z,9.39
2018-12-19T15:31:23.542Z,9.38
2018-12-19T15:33:59.874Z,9.37
2018-12-19T15:39:30.422Z,9.35
2018-12-19T15:42:07.534Z,9.35
2018-12-19T15:44:46.260Z,9.34
2018-12-19T15:47:26.098Z,9.36
2018-12-19T15:50:07.324Z,9.22
2018-12-19T15:52:44.912Z,9.38
2018-12-19T15:55:22.284Z,9.36
2018-12-19T15:57:59.311Z,9.35
2018-12-19T16:00:35.515Z,9.37
2018-12-19T16:03:16.175Z,9.36
2018-12-19T16:05:53.891Z,9.36
2018-12-19T16:08:34.511Z,9.35
2018-12-19T16:11:09.898Z,9.35
2018-12-19T16:13:48.414Z,9.35
2018-12-19T16:16:24.062Z,9.36
2018-12-19T16:19:02.045Z,9.33
2018-12-19T16:21:43.222Z,9.34
2018-12-19T16:24:22.159Z,9.32
2018-12-19T16:26:57.785Z,9.30
2018-12-19T16:29:36.625Z,9.32
2018-12-19T16:32:16.022Z,9.32
2018-12-19T16:34:55.317Z,9.31
2018-12-19T16:37:32.187Z,9.28
2018-12-19T16:40:10.805Z,9.30
2018-12-19T16:42:47.911Z,9.29
2018-12-19T16:45:27.842Z,9.30
2018-12-19T16:50:55.718Z,9.27
2018-12-19T16:53:31.795Z,9.26
2018-12-19T16:56:10.162Z,9.21
2018-12-19T16:58:48.152Z,9.25
2018-12-19T17:06:35.267Z,9.27
2018-12-19T17:11:42.290Z,9.26
2018-12-19T17:14:19.697Z,9.23
2018-12-19T17:16:59.155Z,9.20
2018-12-19T17:22:18.944Z,9.16
2018-12-19T17:24:56.450Z,9.14
2018-12-19T17:30:23.010Z,9.08
2018-12-19T17:33:00.529Z,9.11
2018-12-19T17:35:36.512Z,9.11
2018-12-19T17:38:13.426Z,9.14
2018-12-19T17:40:50.844Z,9.11
2018-12-19T17:43:31.194Z,9.07
2018-12-19T17:46:08.224Z,9.00
2018-12-19T17:48:46.494Z,8.95
2018-12-19T17:51:24.294Z,8.94
2018-12-19T17:54:01.166Z,8.93
2018-12-19T17:59:22.851Z,8.94
2018-12-19T18:01:59.815Z,8.94
2018-12-19T18:04:37.047Z,8.94
2018-12-19T18:07:15.550Z,8.95
2018-12-19T18:09:52.569Z,8.94
2018-12-19T18:12:31.341Z,8.94
2018-12-19T18:17:55.807Z,8.98
2018-12-19T18:20:33.701Z,8.92
2018-12-19T18:23:11.795Z,8.63
2018-12-19T18:25:50.791Z,8.87
2018-12-19T18:28:29.329Z,8.87
2018-12-19T18:31:07.426Z,8.87
2018-12-19T18:33:45.628Z,8.87
2018-12-19T18:36:24.963Z,8.87
2018-12-19T18:39:02.705Z,8.87
2018-12-19T18:41:41.449Z,8.90
2018-12-19T18:44:21.838Z,8.91
2018-12-19T18:47:00.042Z,8.94
2018-12-19T18:49:37.578Z,8.95
2018-12-19T18:52:15.415Z,8.97
2018-12-19T18:54:55.410Z,8.98
2018-12-19T18:57:34.329Z,9.01
2018-12-19T19:00:14.979Z,9.02
2018-12-19T19:02:53.840Z,9.02
2018-12-19T19:05:31.891Z,9.03
2018-12-19T19:08:09.508Z,9.03
2018-12-19T19:10:46.420Z,9.03
2018-12-19T19:13:23.041Z,9.02
2018-12-19T19:15:59.546Z,9.03
2018-12-19T19:18:36.140Z,9.03
2018-12-19T19:21:13.153Z,9.04
2018-12-19T19:23:50.033Z,9.02
2018-12-19T19:26:30.968Z,9.02
2018-12-19T19:29:10.007Z,9.01
2018-12-19T19:31:47.707Z,9.01
2018-12-19T19:34:25.951Z,9.02
2018-12-19T19:37:04.173Z,9.01
2018-12-19T19:39:42.914Z,9.02
2018-12-19T19:42:20.268Z,9.01
2018-12-19T19:44:58.152Z,9.01
2018-12-19T19:47:36.079Z,9.00
2018-12-19T19:50:15.225Z,9.01
2018-12-19T19:55:35.292Z,8.98
2018-12-19T19:58:14.462Z,8.99
2018-12-19T20:00:52.582Z,8.99
2018-12-19T20:03:28.568Z,9.01
2018-12-19T20:06:04.489Z,9.00
2018-12-19T20:08:45.786Z,9.01
2018-12-19T20:11:23.474Z,8.97
2018-12-19T20:14:01.332Z,9.01
2018-12-19T20:16:44.424Z,9.01
2018-12-19T20:19:23.621Z,9.03
2018-12-19T20:22:01.683Z,9.03
2018-12-19T20:24:38.778Z,9.03
2018-12-19T20:27:16.356Z,9.04
2018-12-19T20:29:53.477Z,9.04
2018-12-19T20:32:30.082Z,9.04
2018-12-19T20:35:11.285Z,9.05
2018-12-19T20:37:49.819Z,9.06
2018-12-19T20:40:27.004Z,9.06
2018-12-19T20:43:07.074Z,9.07
2018-12-19T20:45:45.678Z,9.06
2018-12-19T20:48:23.646Z,9.07
2018-12-19T20:51:02.005Z,9.09
2018-12-19T20:53:42.678Z,9.10
2018-12-19T20:56:21.241Z,9.11
2018-12-19T20:58:59.591Z,9.11
2018-12-19T21:01:40.067Z,9.11
2018-12-19T21:04:18.171Z,9.11
2018-12-19T21:06:56.303Z,9.13
2018-12-19T21:09:35.269Z,9.14
2018-12-19T21:17:21.877Z,9.07
2018-12-19T21:20:00.055Z,9.10
2018-12-19T21:22:37.979Z,9.11
2018-12-19T21:25:15.821Z,9.13
2018-12-19T21:27:54.718Z,9.12
2018-12-19T21:30:32.345Z,9.13
2018-12-19T21:33:14.141Z,9.14
2018-12-19T21:35:53.172Z,9.14
2018-12-19T21:38:31.757Z,9.15
2018-12-19T21:41:09.193Z,9.15
2018-12-19T21:43:53.481Z,9.19
2018-12-19T21:46:27.580Z,9.19
2018-12-19T21:49:05.708Z,9.20
2018-12-19T21:51:44.693Z,9.20
2018-12-19T21:54:22.186Z,9.20
2018-12-19T21:57:00.428Z,9.19
2018-12-19T21:59:37.982Z,9.18
2018-12-19T22:02:16.026Z,9.18
2018-12-19T22:04:53.551Z,9.17
2018-12-19T22:07:31.794Z,9.15
2018-12-19T22:10:09.011Z,9.14
2018-12-19T22:12:47.691Z,9.12
2018-12-19T22:15:25.031Z,9.11
2018-12-19T22:18:04.574Z,9.07
2018-12-19T22:20:40.902Z,9.07
2018-12-19T22:23:19.065Z,9.04
2018-12-19T22:25:58.757Z,8.96
2018-12-19T22:31:37.266Z,8.78
2018-12-19T22:34:14.078Z,8.61
2018-12-19T22:36:50.022Z,8.45
2018-12-19T22:39:28.355Z,8.28
2018-12-19T22:42:07.910Z,8.14
2018-12-19T22:44:47.290Z,8.03
2018-12-19T22:47:24.715Z,7.91
2018-12-19T22:52:50.312Z,7.75
2018-12-19T22:55:29.980Z,7.68
2018-12-19T22:58:07.300Z,7.63
2018-12-19T23:00:54.204Z,7.62
2018-12-19T23:03:38.737Z,7.55
2018-12-19T23:06:17.887Z,7.47
2018-12-19T23:08:57.207Z,7.42
2018-12-19T23:11:36.106Z,7.36
2018-12-19T23:14:17.591Z,7.32
2018-12-19T23:16:56.259Z,7.29
2018-12-19T23:19:34.609Z,7.25
2018-12-19T23:22:15.788Z,7.19
2018-12-19T23:24:55.119Z,7.15
2018-12-19T23:27:35.796Z,7.09
2018-12-19T23:30:15.346Z,6.86
2018-12-19T23:32:54.804Z,7.01
2018-12-19T23:35:32.112Z,6.95
2018-12-19T23:38:10.433Z,6.91
2018-12-19T23:40:48.948Z,6.86
2018-12-19T23:48:38.762Z,6.58
2018-12-19T23:51:17.428Z,6.55
2018-12-19T23:53:56.076Z,6.50
2018-12-19T23:56:36.370Z,6.43
2018-12-19T23:59:18.300Z,6.39
